Time;durP1;ratioP1;P1;durP2;ratioP2;P2;SDS_P1;SDS_P2;PMS_P1;PMS_P2;Temp;Humidity;BMP_temperature;BMP_pressure;BME280_temperature;BME280_humidity;BME280_pressure;Samples;Min_cycle;Max_cycle;Signal;HPM_P1;HPM_P2
2021/05/30 00:02:05;;;;;;;12.05;4.40;;;;;;;;;;5057677;28;20052;-52
2021/05/30 00:04:31;;;;;;;9.70;4.53;;;;;;;;;;5043501;28;20041;-54
2021/05/30 00:06:57;;;;;;;11.13;4.20;;;;;;;;;;5041588;28;20040;-50
2021/05/30 00:09:25;;;;;;;10.05;4.28;;;;;;;;;;5044037;28;20048;-51
2021/05/30 00:11:51;;;;;;;8.98;4.15;;;;;;;;;;5056368;28;20030;-49
2021/05/30 00:14:17;;;;;;;8.00;3.80;;;;;;;;;;5043613;28;20054;-53
2021/05/30 00:16:45;;;;;;;10.77;4.75;;;;;;;;;;5041463;28;20033;-55
2021/05/30 00:19:13;;;;;;;10.45;4.15;;;;;;;;;;5063330;28;20044;-57
2021/05/30 00:21:39;;;;;;;7.93;4.20;;;;;;;;;;5062765;28;20047;-54
2021/05/30 00:24:06;;;;;;;21.95;4.28;;;;;;;;;;5039568;28;20052;-50
2021/05/30 00:26:33;;;;;;;8.65;4.20;;;;;;;;;;5043601;28;20041;-50
2021/05/30 00:29:04;;;;;;;7.90;4.22;;;;;;;;;;5040654;28;20045;-49
2021/05/30 00:31:30;;;;;;;8.32;3.72;;;;;;;;;;5043125;28;20033;-51
2021/05/30 00:33:56;;;;;;;8.05;3.83;;;;;;;;;;5040154;28;20037;-54
2021/05/30 00:36:22;;;;;;;13.48;4.53;;;;;;;;;;5043415;28;20049;-54
2021/05/30 00:38:51;;;;;;;12.88;4.82;;;;;;;;;;5051597;28;20033;-53
2021/05/30 00:41:17;;;;;;;11.10;4.50;;;;;;;;;;5063054;28;20098;-54
2021/05/30 00:43:44;;;;;;;11.90;5.22;;;;;;;;;;5043891;28;20045;-52
2021/05/30 00:46:11;;;;;;;12.18;4.70;;;;;;;;;;5047604;28;20033;-54
2021/05/30 00:48:37;;;;;;;9.70;4.55;;;;;;;;;;5047295;28;20048;-50
2021/05/30 00:51:03;;;;;;;9.32;4.03;;;;;;;;;;5064950;28;20037;-58
2021/05/30 00:53:29;;;;;;;10.77;5.05;;;;;;;;;;5058777;28;20609;-55
2021/05/30 00:55:55;;;;;;;9.30;4.28;;;;;;;;;;5063195;28;20032;-51
2021/05/30 00:58:21;;;;;;;8.23;4.47;;;;;;;;;;5064489;28;20047;-54
2021/05/30 01:00:48;;;;;;;12.00;4.43;;;;;;;;;;5061627;28;20037;-49
2021/05/30 01:03:14;;;;;;;11.35;4.10;;;;;;;;;;5064689;28;20048;-51
2021/05/30 01:05:42;;;;;;;10.77;4.22;;;;;;;;;;5043968;28;20029;-54
2021/05/30 01:08:10;;;;;;;10.18;4.25;;;;;;;;;;5048047;28;20109;-54
2021/05/30 01:10:37;;;;;;;10.57;3.95;;;;;;;;;;5060082;28;20032;-51
2021/05/30 01:13:04;;;;;;;12.68;4.22;;;;;;;;;;5063878;28;20122;-54
2021/05/30 01:15:31;;;;;;;8.43;4.20;;;;;;;;;;5062122;28;20033;-57
2021/05/30 01:17:58;;;;;;;7.38;3.97;;;;;;;;;;5064256;28;20037;-52
2021/05/30 01:20:26;;;;;;;8.77;3.88;;;;;;;;;;5058588;28;20056;-54
2021/05/30 01:22:52;;;;;;;12.93;4.22;;;;;;;;;;5058250;28;20056;-57
2021/05/30 01:25:20;;;;;;;9.38;4.00;;;;;;;;;;5058739;28;20068;-60
2021/05/30 01:27:47;;;;;;;10.00;4.35;;;;;;;;;;5062716;28;20025;-58
2021/05/30 01:30:23;;;;;;;9.82;4.20;;;;;;;;;;5043153;28;20037;-55
2021/05/30 01:32:50;;;;;;;9.57;4.40;;;;;;;;;;5052229;28;20253;-51
2021/05/30 01:35:16;;;;;;;10.73;4.60;;;;;;;;;;5067255;28;20036;-53
2021/05/30 01:37:42;;;;;;;11.63;4.53;;;;;;;;;;5062758;28;20037;-51
2021/05/30 01:40:13;;;;;;;10.40;4.97;;;;;;;;;;5060725;28;20029;-53
2021/05/30 01:42:40;;;;;;;10.85;4.60;;;;;;;;;;5052892;28;20032;-51
2021/05/30 01:45:07;;;;;;;8.55;4.05;;;;;;;;;;5065909;28;20037;-56
2021/05/30 01:47:36;;;;;;;11.98;4.38;;;;;;;;;;5044847;28;20030;-49
2021/05/30 01:50:02;;;;;;;;;;;;;;;;;;5062388;28;20037;-52
2021/05/30 01:52:28;;;;;;;8.00;4.03;;;;;;;;;;5051151;28;20055;-51
2021/05/30 01:54:54;;;;;;;8.57;4.40;;;;;;;;;;5059531;28;20041;-55
2021/05/30 01:57:20;;;;;;;13.27;4.30;;;;;;;;;;5048400;28;20034;-53
2021/05/30 01:59:47;;;;;;;9.63;4.60;;;;;;;;;;5062868;28;20033;-57
2021/05/30 02:02:14;;;;;;;13.15;4.70;;;;;;;;;;5043647;28;20103;-52
2021/05/30 02:04:41;;;;;;;10.38;4.70;;;;;;;;;;5054282;28;20037;-51
2021/05/30 02:07:07;;;;;;;12.23;4.20;;;;;;;;;;5061424;28;20032;-56
2021/05/30 02:09:42;;;;;;;14.63;4.72;;;;;;;;;;5077797;28;20056;-52
2021/05/30 02:12:09;;;;;;;14.60;4.40;;;;;;;;;;5046373;28;20037;-48
2021/05/30 02:14:35;;;;;;;11.50;4.70;;;;;;;;;;5044645;28;20057;-53
2021/05/30 02:17:02;;;;;;;11.27;4.55;;;;;;;;;;5043712;28;20048;-48
2021/05/30 02:19:29;;;;;;;14.68;5.15;;;;;;;;;;5046171;28;20057;-53
2021/05/30 02:21:55;;;;;;;11.77;4.47;;;;;;;;;;5059623;28;20091;-55
2021/05/30 02:24:22;;;;;;;11.38;4.22;;;;;;;;;;5051719;28;20029;-54
2021/05/30 02:26:48;;;;;;;10.48;4.60;;;;;;;;;;5061798;28;20114;-50
2021/05/30 02:29:24;;;;;;;10.32;4.65;;;;;;;;;;5044733;28;20044;-55
2021/05/30 02:31:50;;;;;;;16.73;4.30;;;;;;;;;;5061412;28;20054;-53
2021/05/30 02:34:17;;;;;;;9.10;4.78;;;;;;;;;;5041857;28;20041;-53
2021/05/30 02:36:43;;;;;;;8.95;4.28;;;;;;;;;;5054077;28;20043;-56
2021/05/30 02:39:14;;;;;;;9.20;4.18;;;;;;;;;;5047569;28;20049;-52
2021/05/30 02:41:40;;;;;;;11.70;4.95;;;;;;;;;;5058778;28;20033;-52
2021/05/30 02:44:06;;;;;;;10.52;4.38;;;;;;;;;;5042866;28;20040;-54
2021/05/30 02:46:32;;;;;;;11.45;4.78;;;;;;;;;;5052258;28;20033;-53
2021/05/30 02:49:00;;;;;;;9.18;4.35;;;;;;;;;;5061800;28;20078;-52
2021/05/30 02:51:27;;;;;;;12.55;4.93;;;;;;;;;;5049263;28;20041;-55
2021/05/30 02:53:53;;;;;;;13.30;4.95;;;;;;;;;;5051653;28;20017;-53
2021/05/30 02:56:19;;;;;;;10.20;4.65;;;;;;;;;;5049669;28;20043;-57
2021/05/30 02:58:45;;;;;;;11.95;5.10;;;;;;;;;;5060618;28;20040;-56
2021/05/30 03:03:44;;;;;;;9.95;5.10;;;;;;;;;;5016796;23;20053;-55
2021/05/30 03:06:10;;;;;;;10.48;4.88;;;;;;;;;;4995615;28;20061;-55
2021/05/30 03:08:37;;;;;;;9.80;4.47;;;;;;;;;;4997607;28;20030;-56
2021/05/30 03:11:03;;;;;;;10.30;4.85;;;;;;;;;;4997884;28;20037;-49
2021/05/30 03:13:29;;;;;;;7.95;4.18;;;;;;;;;;5000355;28;20033;-49
2021/05/30 03:15:55;;;;;;;10.00;4.43;;;;;;;;;;5010189;28;20054;-53
2021/05/30 03:18:21;;;;;;;12.43;4.93;;;;;;;;;;5002197;28;20052;-54
2021/05/30 03:20:47;;;;;;;13.32;4.82;;;;;;;;;;4991793;28;20049;-52
2021/05/30 03:23:13;;;;;;;10.63;4.90;;;;;;;;;;4993986;28;20046;-54
2021/05/30 03:25:40;;;;;;;13.25;4.63;;;;;;;;;;4994633;28;20074;-50
2021/05/30 03:28:06;;;;;;;15.35;4.93;;;;;;;;;;4996187;28;20062;-55
2021/05/30 03:30:33;;;;;;;12.05;5.20;;;;;;;;;;5001161;28;20038;-54
2021/05/30 03:33:00;;;;;;;10.63;4.90;;;;;;;;;;4992112;28;20049;-54
2021/05/30 03:35:26;;;;;;;9.68;4.40;;;;;;;;;;4999953;28;20057;-51
2021/05/30 03:37:53;;;;;;;15.40;5.32;;;;;;;;;;4993626;28;20057;-47
2021/05/30 03:40:28;;;;;;;11.93;5.00;;;;;;;;;;5001436;28;20034;-52
2021/05/30 03:42:55;;;;;;;11.63;5.40;;;;;;;;;;4986279;28;20090;-49
2021/05/30 03:45:21;;;;;;;14.65;5.35;;;;;;;;;;5014952;28;20045;-52
2021/05/30 03:47:47;;;;;;;9.88;5.53;;;;;;;;;;4997364;28;20045;-48
2021/05/30 03:50:14;;;;;;;17.95;5.30;;;;;;;;;;4998155;28;20046;-53
2021/05/30 03:52:40;;;;;;;14.13;5.05;;;;;;;;;;5002878;28;20041;-50
2021/05/30 03:55:07;;;;;;;12.18;5.32;;;;;;;;;;4990149;28;20056;-54
2021/05/30 03:57:34;;;;;;;11.30;5.13;;;;;;;;;;5000297;28;20038;-50
2021/05/30 04:00:01;;;;;;;12.60;4.55;;;;;;;;;;4992688;28;20053;-49
2021/05/30 04:02:27;;;;;;;15.68;5.65;;;;;;;;;;5000573;28;20041;-54
2021/05/30 04:04:53;;;;;;;13.48;5.18;;;;;;;;;;5044453;28;20067;-54
2021/05/30 04:07:19;;;;;;;11.90;5.15;;;;;;;;;;5034012;28;20048;-51
2021/05/30 04:09:45;;;;;;;14.93;5.28;;;;;;;;;;5044485;28;20041;-50
2021/05/30 04:12:11;;;;;;;11.32;5.03;;;;;;;;;;5027425;28;20051;-50
2021/05/30 04:14:37;;;;;;;10.93;5.40;;;;;;;;;;5046991;28;20414;-52
2021/05/30 04:17:04;;;;;;;10.15;5.15;;;;;;;;;;5029696;28;20060;-53
2021/05/30 04:19:30;;;;;;;17.92;5.38;;;;;;;;;;5038603;28;20095;-49
2021/05/30 04:21:56;;;;;;;10.95;5.10;;;;;;;;;;5034810;28;20030;-49
2021/05/30 04:24:22;;;;;;;10.95;5.10;;;;;;;;;;5025110;28;20037;-52
2021/05/30 04:26:48;;;;;;;8.65;4.65;;;;;;;;;;5020356;28;20048;-51
2021/05/30 04:29:14;;;;;;;11.55;5.43;;;;;;;;;;5038003;28;20032;-54
2021/05/30 04:31:40;;;;;;;11.50;5.82;;;;;;;;;;5029984;28;20033;-53
2021/05/30 04:34:07;;;;;;;16.25;5.40;;;;;;;;;;5027365;28;20028;-52
2021/05/30 04:36:33;;;;;;;12.23;5.78;;;;;;;;;;5043903;28;20052;-57
2021/05/30 04:39:01;;;;;;;12.60;5.30;;;;;;;;;;5022890;28;20033;-58
2021/05/30 04:41:27;;;;;;;14.15;5.05;;;;;;;;;;5024747;28;20045;-55
2021/05/30 04:43:53;;;;;;;11.75;5.32;;;;;;;;;;5025481;28;20056;-55
2021/05/30 04:46:21;;;;;;;12.15;5.00;;;;;;;;;;5044500;28;20076;-53
2021/05/30 04:48:48;;;;;;;11.35;5.28;;;;;;;;;;5047361;28;20049;-50
2021/05/30 04:51:15;;;;;;;13.30;5.63;;;;;;;;;;5046145;28;20053;-53
2021/05/30 04:53:42;;;;;;;12.35;5.32;;;;;;;;;;5026067;28;20073;-55
2021/05/30 04:56:09;;;;;;;13.02;5.78;;;;;;;;;;5026431;28;20077;-51
2021/05/30 04:58:35;;;;;;;10.82;5.57;;;;;;;;;;5020961;28;20041;-53
2021/05/30 05:01:02;;;;;;;12.77;5.30;;;;;;;;;;5042243;28;20041;-51
2021/05/30 05:03:28;;;;;;;10.73;5.32;;;;;;;;;;5021876;28;20037;-56
2021/05/30 05:05:54;;;;;;;11.63;4.88;;;;;;;;;;5061523;28;20044;-52
2021/05/30 05:08:22;;;;;;;14.85;5.18;;;;;;;;;;5055461;28;20048;-55
2021/05/30 05:10:48;;;;;;;12.93;5.80;;;;;;;;;;5054028;28;20068;-56
2021/05/30 05:13:14;;;;;;;13.38;5.43;;;;;;;;;;5049477;28;20085;-55
2021/05/30 05:15:41;;;;;;;12.73;5.55;;;;;;;;;;5059634;28;20028;-51
2021/05/30 05:18:11;;;;;;;14.73;5.47;;;;;;;;;;5044297;28;20032;-49
2021/05/30 05:20:37;;;;;;;14.43;5.45;;;;;;;;;;5050469;28;20036;-52
2021/05/30 05:23:03;;;;;;;18.23;5.95;;;;;;;;;;5050225;28;20403;-53
2021/05/30 05:25:32;;;;;;;14.30;6.35;;;;;;;;;;5055143;28;20056;-51
2021/05/30 05:28:00;;;;;;;;;;;;;;;;;;5047625;28;20143;-54
2021/05/30 05:30:27;;;;;;;12.15;5.40;;;;;;;;;;5045965;28;19921;-49
2021/05/30 05:32:56;;;;;;;13.82;5.60;;;;;;;;;;5043302;28;20041;-55
2021/05/30 05:35:22;;;;;;;13.68;5.85;;;;;;;;;;5057003;28;20029;-51
2021/05/30 05:37:48;;;;;;;14.35;6.35;;;;;;;;;;5057613;28;20051;-56
2021/05/30 05:40:15;;;;;;;15.63;7.03;;;;;;;;;;5056476;28;20047;-56
2021/05/30 05:42:41;;;;;;;13.27;6.10;;;;;;;;;;5052254;28;20037;-51
2021/05/30 05:45:08;;;;;;;15.48;6.50;;;;;;;;;;5049499;28;20188;-54
2021/05/30 05:47:34;;;;;;;14.00;5.78;;;;;;;;;;5041827;28;20025;-52
2021/05/30 05:50:00;;;;;;;21.90;6.60;;;;;;;;;;5024882;28;20094;-51
2021/05/30 05:52:30;;;;;;;12.85;6.03;;;;;;;;;;5052395;28;20024;-53
2021/05/30 05:54:56;;;;;;;18.55;6.45;;;;;;;;;;5078964;28;20056;-51
2021/05/30 05:57:22;;;;;;;17.35;6.90;;;;;;;;;;5022694;28;20045;-53
2021/05/30 05:59:49;;;;;;;14.85;6.30;;;;;;;;;;5061819;28;20095;-55
2021/05/30 06:02:17;;;;;;;13.02;6.15;;;;;;;;;;5064688;28;20113;-54
2021/05/30 06:04:43;;;;;;;12.63;6.25;;;;;;;;;;5066747;28;20036;-52
2021/05/30 06:07:09;;;;;;;17.65;6.78;;;;;;;;;;5060408;28;20060;-57
2021/05/30 06:09:35;;;;;;;12.18;5.40;;;;;;;;;;5050678;28;20037;-53
2021/05/30 06:12:01;;;;;;;17.45;7.00;;;;;;;;;;5058520;28;20061;-49
2021/05/30 06:14:27;;;;;;;18.02;7.43;;;;;;;;;;5039883;28;20043;-53
2021/05/30 06:16:54;;;;;;;15.52;6.68;;;;;;;;;;5028743;28;20029;-54
2021/05/30 06:19:21;;;;;;;15.30;7.28;;;;;;;;;;5041841;28;20034;-57
2021/05/30 06:21:47;;;;;;;15.63;6.57;;;;;;;;;;5039633;28;20056;-56
2021/05/30 06:24:13;;;;;;;13.25;6.28;;;;;;;;;;5046104;28;20080;-57
2021/05/30 06:26:39;;;;;;;12.65;6.80;;;;;;;;;;5036851;28;20041;-57
2021/05/30 06:29:07;;;;;;;17.17;6.78;;;;;;;;;;5034234;28;20026;-51
2021/05/30 06:31:33;;;;;;;17.38;7.25;;;;;;;;;;5034933;28;20087;-51
2021/05/30 06:34:00;;;;;;;18.20;7.60;;;;;;;;;;5064433;28;20047;-53
2021/05/30 06:36:26;;;;;;;18.83;7.47;;;;;;;;;;5054705;28;20060;-52
2021/05/30 06:38:52;;;;;;;15.35;7.18;;;;;;;;;;5035081;28;20044;-56
2021/05/30 06:41:18;;;;;;;15.18;6.47;;;;;;;;;;5043783;28;20037;-48
2021/05/30 06:43:45;;;;;;;15.95;7.63;;;;;;;;;;5040670;28;20049;-51
2021/05/30 06:46:11;;;;;;;16.13;6.78;;;;;;;;;;5062596;28;20039;-53
2021/05/30 06:48:37;;;;;;;15.95;7.20;;;;;;;;;;5044619;28;20029;-55
2021/05/30 06:51:14;;;;;;;16.85;7.22;;;;;;;;;;5053491;28;20036;-54
2021/05/30 06:53:40;;;;;;;13.13;7.22;;;;;;;;;;5038364;28;20069;-53
2021/05/30 06:56:06;;;;;;;20.63;7.57;;;;;;;;;;5047889;28;20130;-53
2021/05/30 06:58:32;;;;;;;17.95;7.80;;;;;;;;;;5057591;28;20064;-54
2021/05/30 07:00:59;;;;;;;16.55;7.85;;;;;;;;;;5064317;28;20044;-54
2021/05/30 07:03:25;;;;;;;15.35;8.18;;;;;;;;;;5033839;28;20037;-56
2021/05/30 07:05:51;;;;;;;20.58;8.23;;;;;;;;;;5024065;28;20107;-54
2021/05/30 07:08:18;;;;;;;16.70;8.30;;;;;;;;;;5022171;28;20052;-54
2021/05/30 07:10:45;;;;;;;19.65;8.52;;;;;;;;;;5048397;28;20044;-56
2021/05/30 07:13:11;;;;;;;16.17;8.07;;;;;;;;;;5056526;28;20119;-54
2021/05/30 07:15:37;;;;;;;17.15;7.85;;;;;;;;;;5057120;28;20073;-54
2021/05/30 07:18:03;;;;;;;14.93;7.68;;;;;;;;;;5060597;28;20133;-51
2021/05/30 07:20:29;;;;;;;16.65;7.93;;;;;;;;;;5033214;28;20122;-51
2021/05/30 07:22:55;;;;;;;16.83;7.72;;;;;;;;;;5050217;28;20037;-55
2021/05/30 07:25:22;;;;;;;15.68;7.38;;;;;;;;;;5026160;28;20048;-56
2021/05/30 07:27:50;;;;;;;20.42;9.82;;;;;;;;;;5015140;28;20045;-51
2021/05/30 07:30:17;;;;;;;16.67;7.20;;;;;;;;;;5033962;28;20052;-57
2021/05/30 07:32:43;;;;;;;17.08;8.15;;;;;;;;;;5036177;28;20293;-56
2021/05/30 07:35:09;;;;;;;15.13;7.65;;;;;;;;;;5031938;28;20049;-53
2021/05/30 07:37:35;;;;;;;15.93;7.57;;;;;;;;;;5037256;28;20034;-57
2021/05/30 07:40:05;;;;;;;24.92;8.75;;;;;;;;;;5034340;28;20049;-55
2021/05/30 07:42:31;;;;;;;15.02;7.72;;;;;;;;;;5038324;28;20029;-56
2021/05/30 07:44:59;;;;;;;15.02;8.13;;;;;;;;;;5032982;28;20073;-54
2021/05/30 07:47:25;;;;;;;13.73;7.07;;;;;;;;;;5037894;28;20041;-54
2021/05/30 07:49:52;;;;;;;19.13;8.02;;;;;;;;;;5029946;28;20037;-56
2021/05/30 07:52:18;;;;;;;16.10;7.53;;;;;;;;;;5032350;28;20034;-57
2021/05/30 07:54:44;;;;;;;16.40;7.43;;;;;;;;;;5032458;28;20037;-53
2021/05/30 07:57:10;;;;;;;17.35;8.20;;;;;;;;;;5036789;28;20123;-54
2021/05/30 07:59:37;;;;;;;16.67;7.22;;;;;;;;;;5033829;28;20029;-57
2021/05/30 08:02:03;;;;;;;19.35;7.18;;;;;;;;;;5040184;28;20148;-53
2021/05/30 08:04:29;;;;;;;13.43;7.55;;;;;;;;;;5038109;28;20067;-54
2021/05/30 08:06:55;;;;;;;18.65;7.47;;;;;;;;;;5036383;28;20132;-57
2021/05/30 08:09:22;;;;;;;16.50;6.68;;;;;;;;;;5032344;28;20091;-53
2021/05/30 08:11:48;;;;;;;15.95;6.75;;;;;;;;;;5026676;28;20048;-57
2021/05/30 08:14:14;;;;;;;13.02;5.55;;;;;;;;;;5035743;28;20065;-56
2021/05/30 08:16:41;;;;;;;13.52;6.78;;;;;;;;;;5050670;28;20064;-56
2021/05/30 08:19:08;;;;;;;15.48;7.30;;;;;;;;;;5058197;28;20041;-57
2021/05/30 08:21:34;;;;;;;14.93;6.72;;;;;;;;;;5033167;28;20041;-53
2021/05/30 08:24:00;;;;;;;18.65;6.78;;;;;;;;;;5037466;28;20089;-54
2021/05/30 08:26:27;;;;;;;15.88;6.43;;;;;;;;;;5028308;28;20041;-56
2021/05/30 08:28:53;;;;;;;14.82;6.78;;;;;;;;;;5053382;28;20063;-55
2021/05/30 08:31:19;;;;;;;14.93;7.82;;;;;;;;;;5056892;28;20052;-59
2021/05/30 08:33:46;;;;;;;10.52;5.53;;;;;;;;;;5059605;28;20048;-57
2021/05/30 08:36:12;;;;;;;16.05;7.85;;;;;;;;;;5041857;28;20122;-57
2021/05/30 08:38:38;;;;;;;16.75;7.90;;;;;;;;;;5046947;28;20040;-55
2021/05/30 08:41:07;;;;;;;15.30;7.55;;;;;;;;;;5073172;28;20134;-56
2021/05/30 08:43:33;;;;;;;13.43;6.82;;;;;;;;;;5036830;28;20061;-55
2021/05/30 08:45:59;;;;;;;20.00;6.93;;;;;;;;;;5058166;28;20066;-54
2021/05/30 08:48:25;;;;;;;14.40;7.25;;;;;;;;;;5045452;28;20066;-60
2021/05/30 08:51:05;;;;;;;15.65;7.38;;;;;;;;;;5062515;28;20056;-58
2021/05/30 08:53:32;;;;;;;13.45;7.10;;;;;;;;;;5041534;28;20061;-54
2021/05/30 08:55:58;;;;;;;15.88;7.15;;;;;;;;;;5041674;28;20045;-54
2021/05/30 08:58:33;;;;;;;15.98;7.32;;;;;;;;;;5065827;28;20052;-53
2021/05/30 09:01:09;;;;;;;13.77;6.53;;;;;;;;;;5051799;28;20055;-51
2021/05/30 09:03:49;;;;;;;19.88;7.22;;;;;;;;;;5023483;28;20037;-56
2021/05/30 09:06:16;;;;;;;16.27;7.03;;;;;;;;;;5026541;28;20148;-54
2021/05/30 09:08:42;;;;;;;13.95;5.72;;;;;;;;;;5046281;28;20040;-55
2021/05/30 09:11:08;;;;;;;14.13;6.90;;;;;;;;;;5043414;28;20056;-52
2021/05/30 09:13:53;;;;;;;14.52;6.68;;;;;;;;;;5038696;28;20041;-53
2021/05/30 09:16:21;;;;;;;17.15;6.82;;;;;;;;;;5024564;28;20047;-53
2021/05/30 09:18:49;;;;;;;11.15;4.72;;;;;;;;;;5023444;28;20029;-51
2021/05/30 09:21:16;;;;;;;9.25;4.50;;;;;;;;;;5048913;28;20058;-53
2021/05/30 09:23:43;;;;;;;11.95;5.50;;;;;;;;;;5045067;28;20065;-52
2021/05/30 09:26:10;;;;;;;10.68;4.45;;;;;;;;;;5026501;28;20053;-54
2021/05/30 09:28:36;;;;;;;9.98;4.00;;;;;;;;;;5045786;28;20025;-56
2021/05/30 09:31:03;;;;;;;9.43;4.20;;;;;;;;;;5043815;28;20049;-53
2021/05/30 09:33:29;;;;;;;11.43;5.05;;;;;;;;;;5050824;28;20033;-53
2021/05/30 09:35:57;;;;;;;9.85;4.78;;;;;;;;;;5039976;28;20070;-53
2021/05/30 09:38:27;;;;;;;9.57;4.47;;;;;;;;;;5026862;28;20099;-59
2021/05/30 09:40:54;;;;;;;7.68;4.03;;;;;;;;;;5039838;28;20122;-59
2021/05/30 09:43:21;;;;;;;13.07;4.35;;;;;;;;;;5016718;28;20052;-59
2021/05/30 09:45:57;;;;;;;7.85;3.53;;;;;;;;;;5029393;28;20483;-58
2021/05/30 09:48:23;;;;;;;10.20;4.40;;;;;;;;;;5022248;28;20045;-62
2021/05/30 09:51:03;;;;;;;11.15;4.10;;;;;;;;;;5030910;28;20065;-50
2021/05/30 09:53:31;;;;;;;7.18;3.38;;;;;;;;;;5040993;28;20049;-61
2021/05/30 09:55:57;;;;;;;7.40;3.13;;;;;;;;;;5039058;28;20064;-52
2021/05/30 09:58:25;;;;;;;8.63;3.70;;;;;;;;;;5041468;28;20057;-59
2021/05/30 10:00:58;;;;;;;8.73;3.80;;;;;;;;;;5039321;28;20057;-54
2021/05/30 10:03:27;;;;;;;7.78;3.28;;;;;;;;;;5058395;28;20064;-58
2021/05/30 10:05:52;;;;;;;7.45;3.47;;;;;;;;;;5042088;28;20049;-53
2021/05/30 10:08:19;;;;;;;8.13;3.40;;;;;;;;;;5045235;28;20045;-54
2021/05/30 10:10:47;;;;;;;8.40;3.17;;;;;;;;;;5040449;28;20037;-56
2021/05/30 10:13:14;;;;;;;7.07;3.40;;;;;;;;;;5045111;28;20052;-55
2021/05/30 10:15:46;;;;;;;9.45;3.33;;;;;;;;;;5037486;28;20097;-61
2021/05/30 10:18:15;;;;;;;7.25;3.20;;;;;;;;;;5043280;28;20034;-57
2021/05/30 10:20:44;;;;;;;10.63;3.47;;;;;;;;;;5043626;28;20052;-60
2021/05/30 10:23:11;;;;;;;10.10;3.72;;;;;;;;;;5044291;28;20048;-61
2021/05/30 10:25:37;;;;;;;10.35;3.58;;;;;;;;;;5042112;28;20094;-61
2021/05/30 10:28:08;;;;;;;9.25;4.20;;;;;;;;;;5061633;28;20052;-59
2021/05/30 10:30:36;;;;;;;14.93;4.40;;;;;;;;;;5045165;28;20041;-54
2021/05/30 10:33:09;;;;;;;9.52;4.80;;;;;;;;;;5038251;28;20200;-56
2021/05/30 10:35:35;;;;;;;9.82;3.47;;;;;;;;;;5041589;28;20053;-61
2021/05/30 10:38:01;;;;;;;7.90;3.63;;;;;;;;;;5038986;28;20060;-59
2021/05/30 10:40:32;;;;;;;6.20;3.28;;;;;;;;;;5035463;28;20029;-58
2021/05/30 10:43:15;;;;;;;7.32;3.33;;;;;;;;;;5020082;28;20059;-58
2021/05/30 10:46:04;;;;;;;8.18;3.80;;;;;;;;;;5043685;28;20033;-57
2021/05/30 10:48:30;;;;;;;;;;;;;;;;;;5041252;28;20122;-60
2021/05/30 10:53:50;;;;;;;8.88;3.33;;;;;;;;;;5041286;28;20033;-60
2021/05/30 10:56:26;;;;;;;10.60;4.07;;;;;;;;;;5047074;28;20025;-60
2021/05/30 10:59:12;;;;;;;11.45;4.88;;;;;;;;;;5060561;28;20055;-73
2021/05/30 11:01:44;;;;;;;6.70;2.72;;;;;;;;;;5061587;28;20055;-62
2021/05/30 11:04:42;;;;;;;6.97;3.00;;;;;;;;;;5030042;28;20056;-61
2021/05/30 11:07:23;;;;;;;5.38;2.75;;;;;;;;;;4982915;28;20098;-62
2021/05/30 11:10:09;;;;;;;6.50;2.75;;;;;;;;;;4974953;28;20089;-62
2021/05/30 11:12:53;;;;;;;8.77;3.13;;;;;;;;;;5016358;28;20064;-66
2021/05/30 11:15:20;;;;;;;5.97;2.47;;;;;;;;;;5061434;28;20045;-61
2021/05/30 11:17:49;;;;;;;9.25;2.42;;;;;;;;;;5039828;28;20044;-61
2021/05/30 11:20:19;;;;;;;7.07;2.25;;;;;;;;;;5042274;28;20053;-61
2021/05/30 11:22:46;;;;;;;6.93;2.10;;;;;;;;;;5043209;28;20045;-62
2021/05/30 11:25:14;;;;;;;6.25;2.28;;;;;;;;;;5031665;28;20066;-61
2021/05/30 11:27:54;;;;;;;5.07;1.90;;;;;;;;;;5045004;28;20044;-62
2021/05/30 11:30:43;;;;;;;5.18;2.33;;;;;;;;;;5035750;28;20045;-61
2021/05/30 11:33:11;;;;;;;4.88;2.42;;;;;;;;;;5042044;28;20059;-62
2021/05/30 11:35:39;;;;;;;5.38;2.40;;;;;;;;;;5035795;28;20037;-62
2021/05/30 11:38:05;;;;;;;5.00;2.42;;;;;;;;;;5044305;28;20045;-61
2021/05/30 11:40:34;;;;;;;6.70;2.40;;;;;;;;;;5035898;28;20119;-62
2021/05/30 11:43:10;;;;;;;6.53;2.22;;;;;;;;;;5040443;28;20115;-61
2021/05/30 11:45:37;;;;;;;5.82;2.20;;;;;;;;;;5053561;28;20045;-60
2021/05/30 11:48:04;;;;;;;5.82;2.53;;;;;;;;;;5043763;28;20044;-61
2021/05/30 11:50:36;;;;;;;7.72;2.63;;;;;;;;;;5040368;28;20032;-61
2021/05/30 11:53:06;;;;;;;6.22;2.80;;;;;;;;;;5042763;28;20044;-61
2021/05/30 11:55:32;;;;;;;8.75;2.42;;;;;;;;;;5040352;28;20069;-61
2021/05/30 11:58:04;;;;;;;4.95;2.30;;;;;;;;;;5043272;28;20106;-61
2021/05/30 12:00:33;;;;;;;5.80;2.20;;;;;;;;;;5058203;28;20047;-61
2021/05/30 12:02:58;;;;;;;;;;;;;;;;;;5040146;28;20073;-60
2021/05/30 12:05:25;;;;;;;5.22;2.13;;;;;;;;;;5030502;28;19927;-60
2021/05/30 12:07:52;;;;;;;4.20;1.90;;;;;;;;;;5041904;28;20045;-61
2021/05/30 12:10:18;;;;;;;5.38;1.90;;;;;;;;;;5019806;28;20056;-61
2021/05/30 12:12:45;;;;;;;4.38;1.80;;;;;;;;;;5040494;28;20176;-62
2021/05/30 12:15:12;;;;;;;3.63;1.90;;;;;;;;;;5037187;28;20037;-61
2021/05/30 12:17:40;;;;;;;2.95;1.63;;;;;;;;;;5040228;28;20038;-62
2021/05/30 12:20:08;;;;;;;4.10;1.80;;;;;;;;;;5038667;28;20048;-61
2021/05/30 12:22:34;;;;;;;2.75;1.42;;;;;;;;;;5036876;28;20114;-61
2021/05/30 12:25:03;;;;;;;3.13;1.70;;;;;;;;;;5042675;28;20107;-61
2021/05/30 12:27:31;;;;;;;4.50;1.73;;;;;;;;;;5021876;28;20044;-62
2021/05/30 12:29:57;;;;;;;;;;;;;;;;;;5026556;28;20056;-61
2021/05/30 12:32:24;;;;;;;4.13;1.80;;;;;;;;;;5033822;28;19925;-61
2021/05/30 12:34:50;;;;;;;3.47;1.33;;;;;;;;;;5042505;28;20037;-61
2021/05/30 12:37:16;;;;;;;3.67;1.55;;;;;;;;;;5027961;28;20037;-60
2021/05/30 12:39:43;;;;;;;4.10;1.63;;;;;;;;;;5023357;28;20052;-61
2021/05/30 12:42:11;;;;;;;2.55;1.40;;;;;;;;;;5036662;28;20044;-61
2021/05/30 12:44:38;;;;;;;3.38;1.35;;;;;;;;;;5041338;28;20033;-61
2021/05/30 12:47:07;;;;;;;2.67;1.17;;;;;;;;;;5036124;28;20045;-61
2021/05/30 12:49:34;;;;;;;4.32;1.52;;;;;;;;;;5041904;28;20041;-60
2021/05/30 12:52:01;;;;;;;2.38;1.30;;;;;;;;;;5036875;28;20053;-62
2021/05/30 12:54:30;;;;;;;2.20;1.30;;;;;;;;;;5042028;28;20041;-61
2021/05/30 12:56:56;;;;;;;4.40;1.80;;;;;;;;;;5013110;28;20052;-62
2021/05/30 12:59:24;;;;;;;4.25;1.80;;;;;;;;;;5026655;28;20228;-61
2021/05/30 13:01:51;;;;;;;4.20;1.60;;;;;;;;;;5041271;28;20056;-60
2021/05/30 13:04:20;;;;;;;2.63;1.30;;;;;;;;;;5045883;28;20062;-61
2021/05/30 13:06:52;;;;;;;6.88;1.60;;;;;;;;;;5045999;28;20055;-62
2021/05/30 13:09:19;;;;;;;3.30;1.50;;;;;;;;;;5051195;28;20037;-62
2021/05/30 13:11:45;;;;;;;5.32;1.48;;;;;;;;;;5066261;28;20036;-61
2021/05/30 13:14:28;;;;;;;3.90;1.70;;;;;;;;;;5042837;28;20029;-62
2021/05/30 13:17:14;;;;;;;3.90;1.38;;;;;;;;;;5042792;28;20033;-62
2021/05/30 13:19:57;;;;;;;5.70;1.85;;;;;;;;;;5037317;28;20056;-62
2021/05/30 13:22:23;;;;;;;3.35;1.80;;;;;;;;;;5044155;28;20060;-61
2021/05/30 13:24:49;;;;;;;7.55;2.53;;;;;;;;;;5057583;28;20065;-61
2021/05/30 13:27:21;;;;;;;9.05;2.30;;;;;;;;;;5046568;28;20061;-61
2021/05/30 13:29:59;;;;;;;3.30;1.95;;;;;;;;;;5039493;28;20098;-61
2021/05/30 13:32:26;;;;;;;3.38;1.80;;;;;;;;;;5043581;28;20127;-59
2021/05/30 13:34:52;;;;;;;4.15;1.70;;;;;;;;;;5038182;28;20053;-61
2021/05/30 13:37:18;;;;;;;5.15;1.35;;;;;;;;;;5037326;28;20041;-61
2021/05/30 13:39:47;;;;;;;3.65;1.52;;;;;;;;;;5043862;28;20040;-61
2021/05/30 13:42:13;;;;;;;3.63;1.50;;;;;;;;;;5040406;28;20045;-61
2021/05/30 13:44:39;;;;;;;2.45;1.30;;;;;;;;;;5050970;28;20029;-61
2021/05/30 13:47:05;;;;;;;4.07;1.60;;;;;;;;;;5045435;28;20048;-61
2021/05/30 13:49:32;;;;;;;2.78;1.38;;;;;;;;;;5038738;28;20037;-61
2021/05/30 13:51:58;;;;;;;2.83;1.55;;;;;;;;;;5042437;28;20041;-62
2021/05/30 13:54:24;;;;;;;3.42;1.55;;;;;;;;;;5026968;28;20047;-62
2021/05/30 13:56:50;;;;;;;5.18;1.48;;;;;;;;;;5063840;28;20129;-61
2021/05/30 13:59:16;;;;;;;3.50;1.63;;;;;;;;;;5043021;28;20219;-61
2021/05/30 14:01:45;;;;;;;2.80;1.60;;;;;;;;;;5044465;28;20044;-61
2021/05/30 14:04:12;;;;;;;4.32;1.77;;;;;;;;;;5042818;28;20060;-62
2021/05/30 14:06:40;;;;;;;5.35;1.48;;;;;;;;;;5040809;28;20055;-61
2021/05/30 14:09:06;;;;;;;3.40;1.52;;;;;;;;;;5045797;28;20045;-60
2021/05/30 14:11:32;;;;;;;2.55;1.30;;;;;;;;;;5039776;28;20040;-61
2021/05/30 14:13:58;;;;;;;3.95;1.40;;;;;;;;;;5042783;28;20073;-61
2021/05/30 14:16:24;;;;;;;2.58;1.40;;;;;;;;;;5019999;28;20037;-60
2021/05/30 14:18:52;;;;;;;2.88;1.38;;;;;;;;;;5044441;28;20055;-60
2021/05/30 14:21:18;;;;;;;4.68;1.40;;;;;;;;;;5037021;28;20145;-60
2021/05/30 14:23:46;;;;;;;3.60;1.20;;;;;;;;;;5040550;28;20115;-62
2021/05/30 14:26:12;;;;;;;4.03;1.20;;;;;;;;;;5038890;28;20069;-67
2021/05/30 14:28:39;;;;;;;5.80;2.25;;;;;;;;;;5041589;28;20041;-62
2021/05/30 14:31:11;;;;;;;6.00;2.05;;;;;;;;;;5040316;28;20125;-59
2021/05/30 14:33:37;;;;;;;5.82;2.15;;;;;;;;;;5043227;28;20036;-59
2021/05/30 14:36:04;;;;;;;4.10;2.10;;;;;;;;;;5042135;28;20051;-60
2021/05/30 14:38:30;;;;;;;11.88;4.57;;;;;;;;;;5025679;28;20047;-62
2021/05/30 14:41:00;;;;;;;9.80;3.80;;;;;;;;;;5047095;28;20037;-60
2021/05/30 14:43:26;;;;;;;6.50;2.47;;;;;;;;;;5043493;28;20047;-61
2021/05/30 14:45:52;;;;;;;7.45;2.70;;;;;;;;;;5043145;28;20073;-62